createdAt,value
2022-08-21T00:01:57.025Z,96990.98
2022-08-21T00:04:29.268Z,96991.98
2022-08-21T00:06:59.740Z,96990.27
2022-08-21T00:09:27.835Z,96986.45
2022-08-21T00:11:55.913Z,96983.37
2022-08-21T00:14:24.604Z,96988.25
2022-08-21T00:16:52.675Z,96987.80
2022-08-21T00:19:26.116Z,96984.38
2022-08-21T00:21:55.633Z,96982.13
2022-08-21T00:24:25.354Z,96976.42
2022-08-21T00:26:54.015Z,96975.30
2022-08-21T00:29:22.187Z,96975.64
2022-08-21T00:31:50.531Z,96976.75
2022-08-21T00:34:18.687Z,96978.63
2022-08-21T00:36:46.715Z,96977.71
2022-08-21T00:39:15.541Z,96982.38
2022-08-21T00:41:44.437Z,96986.66
2022-08-21T00:44:15.556Z,96991.33
2022-08-21T00:46:44.355Z,96987.34
2022-08-21T00:49:13.197Z,96985.73
2022-08-21T00:51:54.859Z,96986.80
2022-08-21T00:54:25.983Z,96984.48
2022-08-21T00:57:00.734Z,96978.01
2022-08-21T00:59:33.659Z,96971.98
2022-08-21T01:02:02.394Z,96963.34
2022-08-21T01:04:30.458Z,96965.35
2022-08-21T01:06:58.624Z,96960.37
2022-08-21T01:09:26.928Z,96957.04
2022-08-21T01:11:55.513Z,96954.33
2022-08-21T01:14:23.885Z,96949.90
2022-08-21T01:16:54.997Z,96948.56
2022-08-21T01:19:23.563Z,96949.88
2022-08-21T01:21:52.706Z,96952.77
2022-08-21T01:24:21.313Z,96955.80
2022-08-21T01:26:52.067Z,96957.89
2022-08-21T01:29:44.536Z,96963.61
2022-08-21T01:32:17.316Z,96964.69
2022-08-21T01:34:47.886Z,96960.83
2022-08-21T01:37:16.545Z,96962.23
2022-08-21T01:39:47.377Z,96967.47
2022-08-21T01:42:15.855Z,96974.56
2022-08-21T01:44:44.460Z,96975.27
2022-08-21T01:47:15.030Z,96966.42
2022-08-21T01:49:46.370Z,96959.58
2022-08-21T01:52:14.689Z,96963.66
2022-08-21T01:54:43.528Z,96976.85
2022-08-21T01:57:13.848Z,96985.52
2022-08-21T01:59:42.522Z,96984.51
2022-08-21T02:02:10.461Z,96982.62
2022-08-21T02:04:38.526Z,96980.94
2022-08-21T02:07:08.380Z,96978.76
2022-08-21T02:09:40.225Z,96975.89
2022-08-21T02:12:08.636Z,96976.23
2022-08-21T02:14:36.760Z,96975.96
2022-08-21T02:17:09.230Z,96973.67
2022-08-21T02:19:40.738Z,96965.39
2022-08-21T02:22:11.312Z,96967.67
2022-08-21T02:24:54.746Z,96968.45
2022-08-21T02:27:26.858Z,96971.95
2022-08-21T02:29:57.799Z,96974.05
2022-08-21T02:32:26.956Z,96977.55
2022-08-21T02:34:55.167Z,96976.48
2022-08-21T02:37:24.329Z,96984.19
2022-08-21T02:39:52.523Z,96993.10
2022-08-21T02:42:20.627Z,96997.33
2022-08-21T02:44:49.102Z,97004.09
2022-08-21T02:47:17.087Z,97007.92
2022-08-21T02:49:45.040Z,97012.48
2022-08-21T02:52:13.102Z,97012.77
2022-08-21T02:54:41.451Z,97012.11
2022-08-21T02:57:09.470Z,97016.48
2022-08-21T02:59:37.605Z,97019.10
2022-08-21T03:02:05.608Z,97025.85
2022-08-21T03:04:33.966Z,97029.48
2022-08-21T03:07:02.023Z,97026.15
2022-08-21T03:09:30.045Z,97022.15
2022-08-21T03:11:58.805Z,97027.80
2022-08-21T03:14:26.887Z,97038.52
2022-08-21T03:16:55.007Z,97047.29
2022-08-21T03:19:23.085Z,97047.70
2022-08-21T03:21:50.997Z,97037.64
2022-08-21T03:24:18.954Z,97030.70
2022-08-21T03:26:49.747Z,97025.42
2022-08-21T03:29:18.089Z,97018.98
2022-08-21T03:31:46.098Z,97018.91
2022-08-21T03:34:14.233Z,97022.94
2022-08-21T03:36:42.218Z,97029.82
2022-08-21T03:39:10.353Z,97030.44
2022-08-21T03:41:38.504Z,97028.27
2022-08-21T03:44:06.520Z,97035.20
2022-08-21T03:46:34.997Z,97037.38
2022-08-21T03:49:03.922Z,97026.86
2022-08-21T03:51:33.495Z,97025.61
2022-08-21T03:54:01.434Z,97026.64
2022-08-21T03:56:29.531Z,97025.20
2022-08-21T03:58:57.870Z,97021.96
2022-08-21T04:01:26.635Z,97021.02
2022-08-21T04:03:54.779Z,97021.77
2022-08-21T04:06:22.798Z,97023.25
2022-08-21T04:08:50.721Z,97024.52
2022-08-21T04:11:18.804Z,97021.85
2022-08-21T04:13:46.924Z,97018.30
2022-08-21T04:16:15.426Z,97015.45
2022-08-21T04:18:43.912Z,97013.38
2022-08-21T04:21:13.424Z,97013.18
2022-08-21T04:23:41.802Z,97014.80
2022-08-21T04:26:10.214Z,97012.36
2022-08-21T04:28:38.273Z,97011.02
2022-08-21T04:31:06.489Z,97009.81
2022-08-21T04:33:35.277Z,97013.54
2022-08-21T04:36:03.726Z,97010.92
2022-08-21T04:38:37.395Z,97011.80
2022-08-21T04:41:07.604Z,97014.88
2022-08-21T04:43:36.163Z,97019.54
2022-08-21T04:46:04.416Z,97022.92
2022-08-21T04:48:34.142Z,97023.63
2022-08-21T04:51:13.122Z,97019.93
2022-08-21T04:54:10.161Z,97014.61
2022-08-21T04:56:50.609Z,97010.52
2022-08-21T04:59:23.624Z,97013.54
2022-08-21T05:01:53.046Z,97017.48
2022-08-21T05:04:25.626Z,97017.73
2022-08-21T05:06:58.872Z,97019.52
2022-08-21T05:09:26.919Z,97015.05
2022-08-21T05:11:56.337Z,97015.98
2022-08-21T05:14:24.327Z,97016.13
2022-08-21T05:16:52.805Z,97020.30
2022-08-21T05:19:20.962Z,97022.86
2022-08-21T05:21:49.299Z,97026.96
2022-08-21T05:24:17.331Z,97029.73
2022-08-21T05:26:47.743Z,97032.13
2022-08-21T05:29:18.290Z,97037.46
2022-08-21T05:31:48.221Z,97048.44
2022-08-21T05:34:20.247Z,97050.98
2022-08-21T05:36:48.226Z,97051.05
2022-08-21T05:39:16.776Z,97051.55
2022-08-21T05:41:44.751Z,97054.54
2022-08-21T05:44:12.737Z,97064.16
2022-08-21T05:46:40.725Z,97072.89
2022-08-21T05:49:09.221Z,97077.16
2022-08-21T05:51:37.375Z,97080.83
2022-08-21T05:54:05.411Z,97079.14
2022-08-21T05:56:33.478Z,97079.09
2022-08-21T05:59:01.983Z,97077.49
2022-08-21T06:01:31.744Z,97079.52
2022-08-21T06:04:00.450Z,97082.67
2022-08-21T06:06:29.539Z,97084.63
2022-08-21T06:08:57.521Z,97085.60
2022-08-21T06:11:28.867Z,97086.09
2022-08-21T06:13:57.320Z,97085.96
2022-08-21T06:16:26.047Z,97083.48
2022-08-21T06:18:54.215Z,97072.20
2022-08-21T06:21:22.424Z,97068.83
2022-08-21T06:23:50.602Z,97069.38
2022-08-21T06:26:18.691Z,97070.40
2022-08-21T06:28:46.811Z,97077.42
2022-08-21T06:31:24.825Z,97084.00
2022-08-21T06:33:53.761Z,97092.95
2022-08-21T06:36:22.263Z,97097.71
2022-08-21T06:38:51.793Z,97093.46
2022-08-21T06:41:24.282Z,97091.05
2022-08-21T06:43:57.741Z,97092.67
2022-08-21T06:46:29.715Z,97096.81
2022-08-21T06:48:58.914Z,97085.48
2022-08-21T06:51:28.083Z,97075.24
2022-08-21T06:53:58.791Z,97074.23
2022-08-21T06:56:27.613Z,97080.77
2022-08-21T06:58:55.597Z,97080.45
2022-08-21T07:01:26.863Z,97085.89
2022-08-21T07:03:55.422Z,97086.62
2022-08-21T07:06:23.689Z,97087.08
2022-08-21T07:08:52.021Z,97082.27
2022-08-21T07:11:23.484Z,97076.20
2022-08-21T07:13:53.841Z,97077.68
2022-08-21T07:16:23.460Z,97075.88
2022-08-21T07:18:51.532Z,97075.94
2022-08-21T07:21:25.213Z,97072.65
2022-08-21T07:23:55.068Z,97066.45
2022-08-21T07:26:24.896Z,97060.59
2022-08-21T07:28:53.993Z,97056.13
2022-08-21T07:31:25.461Z,97059.96
2022-08-21T07:33:54.533Z,97054.77
2022-08-21T07:36:23.057Z,97044.45
2022-08-21T07:38:52.573Z,97040.84
2022-08-21T07:41:26.883Z,97024.98
2022-08-21T07:43:56.580Z,97021.84
2022-08-21T07:46:26.879Z,97016.69
2022-08-21T07:48:56.064Z,97008.91
2022-08-21T07:51:28.511Z,97002.51
2022-08-21T07:54:00.409Z,97001.02
2022-08-21T07:56:31.454Z,97003.55
2022-08-21T07:58:59.660Z,97004.04
2022-08-21T08:01:28.160Z,97000.01
2022-08-21T08:03:57.342Z,97000.88
2022-08-21T08:06:27.236Z,97005.30
2022-08-21T08:08:55.167Z,97004.64
2022-08-21T08:11:23.804Z,97009.60
2022-08-21T08:13:53.813Z,97008.20
2022-08-21T08:16:21.847Z,97005.65
2022-08-21T08:18:51.512Z,97001.64
2022-08-21T08:21:24.066Z,96997.41
2022-08-21T08:23:52.610Z,96993.73
2022-08-21T08:26:20.612Z,96991.17
2022-08-21T08:28:48.857Z,96988.36
2022-08-21T08:31:17.176Z,96989.61
2022-08-21T08:33:45.249Z,96992.05
2022-08-21T08:36:19.203Z,96989.67
2022-08-21T08:38:49.221Z,96988.89
2022-08-21T08:41:30.742Z,96990.05
2022-08-21T08:44:06.944Z,96991.58
2022-08-21T08:46:48.811Z,96992.67
2022-08-21T08:49:52.466Z,96993.45
2022-08-21T08:52:29.824Z,96990.95
2022-08-21T08:55:10.627Z,96986.93
2022-08-21T08:57:45.364Z,96986.44
2022-08-21T09:00:22.373Z,96984.35
2022-08-21T09:02:55.525Z,96976.46
2022-08-21T09:05:36.298Z,96972.84
2022-08-21T09:08:42.153Z,96970.98
2022-08-21T09:11:22.027Z,96973.76
2022-08-21T09:13:57.256Z,96974.05
2022-08-21T09:16:31.247Z,96970.70
2022-08-21T09:19:07.685Z,96960.83
2022-08-21T09:21:51.149Z,96952.96
2022-08-21T09:24:39.563Z,96950.98
2022-08-21T09:27:14.294Z,96936.56
2022-08-21T09:29:48.835Z,96926.13
2022-08-21T09:32:19.579Z,96920.88
2022-08-21T09:35:05.251Z,96914.21
2022-08-21T09:37:36.615Z,96912.60
2022-08-21T09:40:20.414Z,96915.23
2022-08-21T09:42:57.909Z,96909.45
2022-08-21T09:45:26.455Z,96913.08
2022-08-21T09:47:55.273Z,96916.67
2022-08-21T09:50:27.955Z,96913.39
2022-08-21T09:53:01.267Z,96917.40
2022-08-21T09:55:57.955Z,96912.05
2022-08-21T09:58:34.165Z,96907.58
2022-08-21T10:01:05.706Z,96902.39
2022-08-21T10:03:34.649Z,96894.98
2022-08-21T10:06:09.924Z,96893.57
2022-08-21T10:08:40.528Z,96885.41
2022-08-21T10:11:14.922Z,96881.90
2022-08-21T10:14:07.247Z,96881.77
2022-08-21T10:16:38.566Z,96879.41
2022-08-21T10:19:24.896Z,96882.34
2022-08-21T10:22:14.610Z,96880.28
2022-08-21T10:25:16.392Z,96878.19
2022-08-21T10:28:01.599Z,96875.65
2022-08-21T10:30:44.839Z,96872.40
2022-08-21T10:33:47.802Z,96873.39
2022-08-21T10:36:57.176Z,96878.16
2022-08-21T10:39:47.998Z,96877.35
2022-08-21T10:42:37.790Z,96871.02
2022-08-21T10:45:26.030Z,96872.20
2022-08-21T10:47:58.467Z,96872.58
2022-08-21T10:50:26.584Z,96868.00
2022-08-21T10:53:02.111Z,96865.68
2022-08-21T10:55:57.473Z,96864.11
2022-08-21T10:58:38.441Z,96861.96
2022-08-21T11:01:16.606Z,96857.71
2022-08-21T11:03:50.850Z,96856.85
2022-08-21T11:06:24.562Z,96860.59
2022-08-21T11:09:00.819Z,96861.63
2022-08-21T11:11:36.227Z,96858.17
2022-08-21T11:14:23.161Z,96861.71
2022-08-21T11:17:06.481Z,96856.45
2022-08-21T11:19:57.744Z,96851.10
2022-08-21T11:22:39.110Z,96852.16
2022-08-21T11:25:12.033Z,96851.93
2022-08-21T11:27:46.306Z,96845.42
2022-08-21T11:30:15.210Z,96843.55
2022-08-21T11:32:49.568Z,96838.63
2022-08-21T11:35:34.668Z,96841.06
2022-08-21T11:38:29.037Z,96840.64
2022-08-21T11:41:14.841Z,96837.09
2022-08-21T11:43:47.235Z,96830.59
2022-08-21T11:46:18.267Z,96831.62
2022-08-21T11:49:21.361Z,96827.36
2022-08-21T11:52:13.074Z,96824.41
2022-08-21T11:54:44.641Z,96824.58
2022-08-21T11:57:24.137Z,96819.69
2022-08-21T12:00:12.044Z,96819.20
2022-08-21T12:02:51.113Z,96821.51
2022-08-21T12:05:39.498Z,96826.97
2022-08-21T12:08:14.493Z,96828.03
2022-08-21T12:11:00.187Z,96820.73
2022-08-21T12:13:39.959Z,96818.17
2022-08-21T12:16:29.453Z,96811.95
2022-08-21T12:19:05.396Z,96805.35
2022-08-21T12:21:34.483Z,96802.04
2022-08-21T12:24:19.485Z,96797.09
2022-08-21T12:26:52.728Z,96796.30
2022-08-21T12:29:28.926Z,96799.50
2022-08-21T12:32:02.008Z,96795.93
2022-08-21T12:34:43.662Z,96794.61
2022-08-21T12:37:42.345Z,96793.10
2022-08-21T12:40:21.922Z,96790.34
2022-08-21T12:42:58.927Z,96782.67
2022-08-21T12:45:34.579Z,96780.77
2022-08-21T12:48:12.595Z,96784.64
2022-08-21T12:50:58.762Z,96781.41
2022-08-21T12:53:41.685Z,96772.71
2022-08-21T12:56:13.735Z,96770.80
2022-08-21T12:58:47.791Z,96771.62
2022-08-21T13:01:41.326Z,96771.49
2022-08-21T13:04:14.111Z,96764.75
2022-08-21T13:06:46.303Z,96764.70
2022-08-21T13:09:18.246Z,96766.42
2022-08-21T13:11:49.833Z,96761.39
2022-08-21T13:14:38.366Z,96758.80
2022-08-21T13:17:23.216Z,96760.29
2022-08-21T13:19:59.142Z,96764.62
2022-08-21T13:22:33.093Z,96767.68
2022-08-21T13:25:10.595Z,96757.73
2022-08-21T13:27:38.724Z,96755.36
2022-08-21T13:30:09.263Z,96755.77
2022-08-21T13:32:42.188Z,96751.69
2022-08-21T13:35:20.329Z,96745.63
2022-08-21T13:37:52.896Z,96741.50
2022-08-21T13:40:48.250Z,96748.16
2022-08-21T13:43:23.748Z,96754.71
2022-08-21T13:45:54.715Z,96760.45
2022-08-21T13:48:26.334Z,96770.38
2022-08-21T13:50:55.933Z,96771.40
2022-08-21T13:53:36.480Z,96769.65
2022-08-21T13:56:06.191Z,96761.16
2022-08-21T13:58:47.265Z,96753.62
2022-08-21T14:01:41.107Z,96746.42
2022-08-21T14:04:40.348Z,96747.56
2022-08-21T14:07:25.606Z,96743.64
2022-08-21T14:09:55.215Z,96744.33
2022-08-21T14:12:53.071Z,96755.39
2022-08-21T14:15:26.268Z,96765.20
2022-08-21T14:17:54.301Z,96769.43
2022-08-21T14:20:37.277Z,96760.23
2022-08-21T14:23:05.505Z,96750.04
2022-08-21T14:25:43.901Z,96752.10
2022-08-21T14:28:28.294Z,96757.73
2022-08-21T14:30:57.956Z,96760.52
2022-08-21T14:33:30.446Z,96761.94
2022-08-21T14:36:02.466Z,96758.96
2022-08-21T14:38:31.233Z,96750.23
2022-08-21T14:41:17.134Z,96740.12
2022-08-21T14:43:47.709Z,96728.95
2022-08-21T14:46:31.498Z,96732.48
2022-08-21T14:48:59.980Z,96732.21
2022-08-21T14:51:28.240Z,96732.61
2022-08-21T14:53:56.519Z,96731.42
2022-08-21T14:56:27.035Z,96722.77
2022-08-21T14:59:00.537Z,96709.02
2022-08-21T15:01:29.118Z,96691.67
2022-08-21T15:03:57.646Z,96681.81
2022-08-21T15:06:25.790Z,96702.20
2022-08-21T15:08:54.126Z,96717.45
2022-08-21T15:11:42.091Z,96726.72
2022-08-21T15:14:20.045Z,96736.22
2022-08-21T15:16:49.602Z,96741.21
2022-08-21T15:19:17.947Z,96729.64
2022-08-21T15:21:46.118Z,96719.72
2022-08-21T15:24:14.294Z,96710.61
2022-08-21T15:26:44.079Z,96700.45
2022-08-21T15:29:12.663Z,96703.52
2022-08-21T15:31:53.763Z,96707.09
2022-08-21T15:34:27.338Z,96708.78
2022-08-21T15:36:57.438Z,96718.39
2022-08-21T15:39:30.218Z,96724.31
2022-08-21T15:42:06.169Z,96734.67
2022-08-21T15:44:41.665Z,96738.91
2022-08-21T15:47:26.023Z,96745.73
2022-08-21T15:49:54.281Z,96750.70
2022-08-21T15:52:23.967Z,96754.20
2022-08-21T15:54:52.953Z,96758.41
2022-08-21T15:57:24.399Z,96758.33
2022-08-21T15:59:57.334Z,96763.27
2022-08-21T16:02:31.647Z,96767.64
2022-08-21T16:05:00.507Z,96773.33
2022-08-21T16:07:28.801Z,96774.94
2022-08-21T16:09:56.802Z,96775.33
2022-08-21T16:12:28.983Z,96774.25
2022-08-21T16:14:58.325Z,96775.95
2022-08-21T16:17:30.738Z,96774.77
2022-08-21T16:20:00.941Z,96778.11
2022-08-21T16:22:40.518Z,96784.54
2022-08-21T16:25:18.037Z,96781.95
2022-08-21T16:27:51.487Z,96787.46
2022-08-21T16:30:22.222Z,96787.07
2022-08-21T16:32:51.963Z,96785.19
2022-08-21T16:35:22.570Z,96785.06
2022-08-21T16:37:53.298Z,96788.60
2022-08-21T16:40:27.429Z,96792.41
2022-08-21T16:42:56.498Z,96791.46
2022-08-21T16:45:25.729Z,96792.65
2022-08-21T16:47:55.798Z,96799.63
2022-08-21T16:50:25.928Z,96802.60
2022-08-21T16:52:54.673Z,96803.76
2022-08-21T16:55:22.881Z,96806.64
2022-08-21T16:57:51.053Z,96807.20
2022-08-21T17:00:19.422Z,96810.77
2022-08-21T17:02:51.095Z,96811.35
2022-08-21T17:05:20.046Z,96813.22
2022-08-21T17:07:48.858Z,96818.52
2022-08-21T17:10:19.264Z,96817.88
2022-08-21T17:12:56.795Z,96818.95
2022-08-21T17:15:31.432Z,96817.90
2022-08-21T17:18:01.205Z,96815.44
2022-08-21T17:20:30.742Z,96814.42
2022-08-21T17:22:59.141Z,96815.48
2022-08-21T17:25:27.836Z,96820.82
2022-08-21T17:27:56.371Z,96820.55
2022-08-21T17:30:25.722Z,96819.67
2022-08-21T17:32:58.233Z,96819.25
2022-08-21T17:35:27.604Z,96822.81
2022-08-21T17:37:55.690Z,96825.14
2022-08-21T17:40:25.633Z,96824.46
2022-08-21T17:42:53.781Z,96828.48
2022-08-21T17:45:22.220Z,96830.44
2022-08-21T17:47:50.966Z,96830.81
2022-08-21T17:50:22.609Z,96837.42
2022-08-21T17:52:52.450Z,96839.30
2022-08-21T17:55:21.192Z,96838.49
2022-08-21T17:57:51.599Z,96841.14
2022-08-21T18:00:20.850Z,96850.41
2022-08-21T18:02:59.381Z,96855.73
2022-08-21T18:05:28.087Z,96859.23
2022-08-21T18:07:56.696Z,96863.04
2022-08-21T18:10:25.110Z,96868.14
2022-08-21T18:12:53.500Z,96867.45
2022-08-21T18:15:22.062Z,96863.70
2022-08-21T18:17:51.841Z,96863.70
2022-08-21T18:20:22.383Z,96867.20
2022-08-21T18:22:50.702Z,96869.84
2022-08-21T18:25:18.945Z,96876.30
2022-08-21T18:27:51.229Z,96878.96
2022-08-21T18:30:22.075Z,96879.61
2022-08-21T18:32:52.746Z,96880.11
2022-08-21T18:35:22.554Z,96878.60
2022-08-21T18:37:51.831Z,96876.34
2022-08-21T18:40:21.851Z,96878.50
2022-08-21T18:42:55.771Z,96875.13
2022-08-21T18:45:24.709Z,96874.17
2022-08-21T18:47:55.802Z,96877.64
2022-08-21T18:50:26.520Z,96879.84
2022-08-21T18:52:55.085Z,96886.29
2022-08-21T18:55:24.547Z,96885.54
2022-08-21T18:57:55.207Z,96885.61
2022-08-21T19:00:29.003Z,96886.80
2022-08-21T19:02:58.331Z,96883.63
2022-08-21T19:05:27.066Z,96882.20
2022-08-21T19:07:55.456Z,96876.31
2022-08-21T19:10:28.737Z,96870.02
2022-08-21T19:13:01.590Z,96866.38
2022-08-21T19:15:30.090Z,96862.96
2022-08-21T19:17:59.177Z,96864.96
2022-08-21T19:20:36.728Z,96864.86
2022-08-21T19:26:00.559Z,96860.50
2022-08-21T19:28:32.583Z,96862.21
2022-08-21T19:31:05.818Z,96862.11
2022-08-21T19:33:44.271Z,96858.55
2022-08-21T19:36:13.614Z,96859.00
2022-08-21T19:38:46.137Z,96857.16
2022-08-21T19:41:16.827Z,96853.38
2022-08-21T19:43:51.041Z,96850.69
2022-08-21T19:46:29.152Z,96849.64
2022-08-21T19:48:59.035Z,96850.90
2022-08-21T19:51:27.610Z,96853.20
2022-08-21T19:53:57.221Z,96855.77
2022-08-21T19:56:28.691Z,96861.15
2022-08-21T19:58:57.754Z,96863.64
2022-08-21T20:01:27.216Z,96868.17
2022-08-21T20:03:57.208Z,96870.13
2022-08-21T20:06:26.353Z,96872.75
2022-08-21T20:08:55.306Z,96871.17
2022-08-21T20:11:32.080Z,96871.75
2022-08-21T20:14:01.915Z,96876.98
2022-08-21T20:16:31.078Z,96880.52
2022-08-21T20:19:00.337Z,96882.02
2022-08-21T20:21:28.207Z,96886.29
2022-08-21T20:23:57.175Z,96887.48
2022-08-21T20:26:26.502Z,96883.75
2022-08-21T20:28:55.261Z,96883.30
2022-08-21T20:31:24.707Z,96882.72
2022-08-21T20:33:56.083Z,96884.46
2022-08-21T20:36:24.152Z,96881.05
2022-08-21T20:38:53.038Z,96881.63
2022-08-21T20:41:30.587Z,96880.39
2022-08-21T20:44:01.196Z,96881.87
2022-08-21T20:46:32.107Z,96881.89
2022-08-21T20:49:02.282Z,96878.54
2022-08-21T20:51:36.152Z,96870.80
2022-08-21T20:54:24.232Z,96870.88
2022-08-21T20:57:17.682Z,96870.88
2022-08-21T20:59:52.177Z,96871.57
2022-08-21T21:02:23.283Z,96870.05
2022-08-21T21:05:02.107Z,96870.34
2022-08-21T21:08:03.348Z,96877.00
2022-08-21T21:10:34.402Z,96875.59
2022-08-21T21:13:18.887Z,96882.77
2022-08-21T21:15:52.341Z,96880.98
2022-08-21T21:18:30.183Z,96875.18
2022-08-21T21:21:20.768Z,96873.77
2022-08-21T21:24:17.042Z,96872.25
2022-08-21T21:26:57.023Z,96878.68
2022-08-21T21:29:29.866Z,96876.09
2022-08-21T21:31:58.546Z,96865.10
2022-08-21T21:37:25.552Z,96868.32
2022-08-21T21:40:15.629Z,96863.27
2022-08-21T21:43:04.032Z,96856.02
2022-08-21T21:45:58.128Z,96851.34
2022-08-21T21:48:52.796Z,96856.63
2022-08-21T21:51:45.345Z,96864.47
2022-08-21T21:54:16.747Z,96867.16
2022-08-21T21:56:48.515Z,96869.84
2022-08-21T21:59:29.870Z,96868.48
2022-08-21T22:02:35.151Z,96863.45
2022-08-21T22:05:25.357Z,96865.49
2022-08-21T22:08:08.012Z,96865.88
2022-08-21T22:10:57.817Z,96866.89
2022-08-21T22:13:42.385Z,96866.17
2022-08-21T22:16:14.881Z,96867.45
2022-08-21T22:18:53.629Z,96867.01
2022-08-21T22:21:42.948Z,96863.92
2022-08-21T22:24:18.511Z,96863.58
2022-08-21T22:26:50.896Z,96858.22
2022-08-21T22:29:22.118Z,96854.61
2022-08-21T22:32:10.447Z,96859.85
2022-08-21T22:34:38.425Z,96864.35
2022-08-21T22:37:11.311Z,96860.48
2022-08-21T22:39:43.760Z,96867.52
2022-08-21T22:42:24.908Z,96865.44
2022-08-21T22:44:57.036Z,96863.73
2022-08-21T22:47:37.476Z,96861.77
2022-08-21T22:50:24.190Z,96863.91
2022-08-21T22:52:57.093Z,96863.95
2022-08-21T22:55:34.493Z,96863.73
2022-08-21T22:58:13.773Z,96864.77
2022-08-21T23:00:50.791Z,96863.92
2022-08-21T23:03:32.574Z,96861.40
2022-08-21T23:06:21.832Z,96864.34
2022-08-21T23:08:49.831Z,96869.21
2022-08-21T23:11:23.299Z,96870.46
2022-08-21T23:13:54.451Z,96868.23
2022-08-21T23:16:37.595Z,96873.84
2022-08-21T23:19:34.400Z,96882.59
2022-08-21T23:22:16.861Z,96878.25
2022-08-21T23:25:03.681Z,96873.33
2022-08-21T23:30:32.742Z,96882.45
2022-08-21T23:33:09.557Z,96887.50
2022-08-21T23:35:56.036Z,96888.59
2022-08-21T23:38:51.474Z,96893.88
2022-08-21T23:41:34.377Z,96898.86
2022-08-21T23:44:25.059Z,96894.75
2022-08-21T23:47:04.506Z,96891.66
2022-08-21T23:49:57.046Z,96891.20
2022-08-21T23:52:44.839Z,96888.84
2022-08-21T23:55:25.467Z,96890.86
2022-08-21T23:58:00.598Z,96893.68
